Time;durP1;ratioP1;P1;durP2;ratioP2;P2;SDS_P1;SDS_P2;PMS_P1;PMS_P2;Temp;Humidity;BMP_temperature;BMP_pressure;BME280_temperature;BME280_humidity;BME280_pressure;Samples;Min_cycle;Max_cycle;Signal;HPM_P1;HPM_P2
2023/04/11 00:01:23;;;;;;;9.38;5.32;;;2.60;99.90;;;;;;5000544;28;20085;-79
2023/04/11 00:03:48;;;;;;;10.50;5.70;;;2.60;99.90;;;;;;5001032;28;20041;-79
2023/04/11 00:06:14;;;;;;;12.25;5.78;;;2.60;99.90;;;;;;5000382;28;20116;-78
2023/04/11 00:08:40;;;;;;;10.88;6.40;;;2.60;99.90;;;;;;4982195;28;20026;-78
2023/04/11 00:11:06;;;;;;;11.18;5.38;;;2.60;99.90;;;;;;4999551;28;20030;-79
2023/04/11 00:13:33;;;;;;;9.70;5.80;;;2.60;99.90;;;;;;5000771;28;20031;-79
2023/04/11 00:16:01;;;;;;;7.45;5.05;;;2.50;99.90;;;;;;5000123;28;20058;-80
2023/04/11 00:18:26;;;;;;;8.93;4.55;;;2.50;99.90;;;;;;4999859;28;20037;-79
2023/04/11 00:20:52;;;;;;;7.10;4.65;;;2.60;99.90;;;;;;4982965;28;20026;-79
2023/04/11 00:23:18;;;;;;;7.70;4.38;;;2.60;99.90;;;;;;4999786;28;20093;-80
2023/04/11 00:25:43;;;;;;;9.02;5.95;;;2.40;99.90;;;;;;4999748;28;20427;-79
2023/04/11 00:28:09;;;;;;;11.77;4.78;;;2.40;99.90;;;;;;4982720;28;20022;-79
2023/04/11 00:30:35;;;;;;;7.90;5.32;;;2.30;99.90;;;;;;4982678;28;20069;-79
2023/04/11 00:33:01;;;;;;;9.25;5.30;;;2.30;99.90;;;;;;4981197;28;20446;-78
2023/04/11 00:35:26;;;;;;;7.28;4.85;;;2.30;99.90;;;;;;4981064;28;20030;-79
2023/04/11 00:37:54;;;;;;;12.50;4.97;;;2.20;99.90;;;;;;4981423;28;20373;-79
2023/04/11 00:40:21;;;;;;;10.85;4.63;;;2.30;99.90;;;;;;4999460;28;20034;-79
2023/04/11 00:42:47;;;;;;;10.43;5.80;;;2.20;99.90;;;;;;4999132;28;20026;-79
2023/04/11 00:45:13;;;;;;;8.70;5.22;;;2.20;99.90;;;;;;4981275;28;20121;-80
2023/04/11 00:47:40;;;;;;;8.88;5.32;;;2.20;99.90;;;;;;4981404;28;20064;-78
2023/04/11 00:50:06;;;;;;;11.40;5.60;;;2.10;99.90;;;;;;4980067;28;20023;-79
2023/04/11 00:52:33;;;;;;;9.82;5.03;;;2.10;99.90;;;;;;4962571;28;20037;-79
2023/04/11 00:55:01;;;;;;;10.27;5.13;;;2.20;99.90;;;;;;4962686;28;20304;-79
2023/04/11 00:57:29;;;;;;;8.25;5.00;;;2.20;99.90;;;;;;4979370;28;20034;-80
2023/04/11 00:59:55;;;;;;;8.15;4.53;;;2.10;99.90;;;;;;4979556;28;20054;-79
2023/04/11 01:02:23;;;;;;;8.93;4.88;;;2.10;99.90;;;;;;4979259;28;20042;-78
2023/04/11 01:04:50;;;;;;;8.23;5.20;;;2.00;99.90;;;;;;4961892;28;20019;-79
2023/04/11 01:07:17;;;;;;;9.55;5.15;;;2.10;99.90;;;;;;4962339;28;20034;-79
2023/04/11 01:09:44;;;;;;;7.75;5.13;;;2.10;99.90;;;;;;4961161;28;20073;-79
2023/04/11 01:12:11;;;;;;;10.27;5.70;;;2.20;99.90;;;;;;4979117;28;20034;-78
2023/04/11 01:14:38;;;;;;;7.95;5.53;;;2.00;99.90;;;;;;4978466;28;20030;-79
2023/04/11 01:17:06;;;;;;;9.50;5.00;;;2.00;99.90;;;;;;4962118;28;20037;-78
2023/04/11 01:19:32;;;;;;;9.43;5.22;;;1.90;99.90;;;;;;4979086;28;20038;-80
2023/04/11 01:22:00;;;;;;;9.18;5.47;;;1.90;99.90;;;;;;4962101;28;20031;-78
2023/04/11 01:24:26;;;;;;;9.73;6.07;;;1.90;99.90;;;;;;4961229;28;20037;-78
2023/04/11 01:26:52;;;;;;;7.78;4.82;;;1.80;99.90;;;;;;4978907;28;20030;-79
2023/04/11 01:29:18;;;;;;;10.32;5.57;;;1.90;99.90;;;;;;4961953;28;20027;-79
2023/04/11 01:31:44;;;;;;;8.85;5.13;;;1.90;99.90;;;;;;4977780;28;20082;-78
2023/04/11 01:34:13;;;;;;;12.63;5.80;;;1.80;99.90;;;;;;4961161;28;20023;-79
2023/04/11 01:36:40;;;;;;;10.90;5.45;;;1.70;99.90;;;;;;4979186;28;20046;-79
2023/04/11 01:39:06;;;;;;;7.57;5.03;;;1.70;99.90;;;;;;4959552;28;20033;-77
2023/04/11 01:41:34;;;;;;;8.88;5.00;;;1.60;99.90;;;;;;4961688;28;20118;-77
2023/04/11 01:44:03;;;;;;;8.13;4.82;;;1.50;99.90;;;;;;4977053;28;20027;-79
2023/04/11 01:46:29;;;;;;;8.73;5.10;;;1.60;99.90;;;;;;4960220;28;20360;-76
2023/04/11 01:48:56;;;;;;;11.20;5.55;;;1.50;99.90;;;;;;4958862;28;20050;-79
2023/04/11 01:51:22;;;;;;;8.43;4.97;;;1.50;99.90;;;;;;4960986;28;20507;-76
2023/04/11 01:53:47;;;;;;;8.32;5.63;;;1.50;99.90;;;;;;4975922;28;20211;-78
2023/04/11 01:56:13;;;;;;;10.40;6.00;;;1.50;99.90;;;;;;4975768;28;20109;-77
2023/04/11 01:58:40;;;;;;;10.35;5.20;;;1.50;99.90;;;;;;4975570;28;20022;-76
2023/04/11 02:01:06;;;;;;;10.98;5.57;;;1.40;99.90;;;;;;4976014;28;20031;-79
2023/04/11 02:03:31;;;;;;;11.52;5.20;;;1.50;99.90;;;;;;4975814;28;20030;-77
2023/04/11 02:05:57;;;;;;;9.70;4.80;;;1.50;99.90;;;;;;4958155;28;20121;-78
2023/04/11 02:08:23;;;;;;;10.52;5.75;;;1.60;99.90;;;;;;4975643;28;20509;-77
2023/04/11 02:10:48;;;;;;;10.48;5.78;;;1.70;99.90;;;;;;4958593;28;20034;-77
2023/04/11 02:13:14;;;;;;;9.68;5.68;;;1.50;99.90;;;;;;4958553;28;20034;-78
2023/04/11 02:15:40;;;;;;;9.10;5.47;;;1.50;99.90;;;;;;4958081;28;20427;-77
2023/04/11 02:18:08;;;;;;;7.78;4.60;;;1.50;99.90;;;;;;4975222;28;20407;-77
2023/04/11 02:20:36;;;;;;;8.27;5.35;;;1.40;99.90;;;;;;4961027;28;20031;-79
2023/04/11 02:23:03;;;;;;;10.02;5.40;;;1.30;99.90;;;;;;4960913;28;20065;-77
2023/04/11 02:25:29;;;;;;;8.75;5.25;;;1.40;99.90;;;;;;4959903;28;20061;-79
2023/04/11 02:27:55;;;;;;;13.23;6.97;;;1.30;99.90;;;;;;4975161;28;20400;-76
2023/04/11 02:30:21;;;;;;;9.95;5.53;;;1.40;99.90;;;;;;4975482;28;20026;-77
2023/04/11 02:32:48;;;;;;;9.68;5.78;;;1.40;99.90;;;;;;4956962;28;20038;-77
2023/04/11 02:35:15;;;;;;;10.30;5.63;;;1.40;99.90;;;;;;4957943;28;20053;-78
2023/04/11 02:37:41;;;;;;;10.73;5.90;;;1.40;99.90;;;;;;4958033;28;20158;-78
2023/04/11 02:40:08;;;;;;;10.45;5.95;;;1.40;99.90;;;;;;4975913;28;20026;-78
2023/04/11 02:42:33;;;;;;;7.30;4.97;;;1.40;99.90;;;;;;4958692;28;20027;-78
2023/04/11 02:44:59;;;;;;;12.55;6.38;;;1.30;99.90;;;;;;4958039;28;20029;-79
2023/04/11 02:47:25;;;;;;;8.73;5.75;;;1.50;99.90;;;;;;4957981;28;20018;-78
2023/04/11 02:49:50;;;;;;;10.50;5.43;;;1.40;99.90;;;;;;4975591;28;20074;-78
2023/04/11 02:52:17;;;;;;;9.25;5.28;;;1.80;99.90;;;;;;4975620;28;20030;-78
2023/04/11 02:54:44;;;;;;;10.15;5.65;;;1.40;99.90;;;;;;4958125;28;20098;-78
2023/04/11 02:57:11;;;;;;;13.85;5.70;;;1.40;99.90;;;;;;4958638;28;20090;-77
2023/04/11 02:59:37;;;;;;;11.02;5.60;;;1.50;99.90;;;;;;4957965;28;20026;-77
2023/04/11 03:02:03;;;;;;;15.40;6.07;;;1.40;99.90;;;;;;4975931;28;20347;-78
2023/04/11 03:04:29;;;;;;;11.23;5.80;;;1.30;99.90;;;;;;4976764;28;20034;-78
2023/04/11 03:06:55;;;;;;;11.85;5.88;;;1.40;99.90;;;;;;4978507;28;20023;-78
2023/04/11 03:09:22;;;;;;;11.80;5.30;;;1.40;99.90;;;;;;4978727;28;20074;-77
2023/04/11 03:11:47;;;;;;;11.52;5.63;;;1.40;99.90;;;;;;4961669;28;20373;-79
2023/04/11 03:14:13;;;;;;;11.75;6.25;;;1.60;99.90;;;;;;4961745;28;20023;-77
2023/04/11 03:16:39;;;;;;;13.07;6.22;;;1.60;99.90;;;;;;4978825;28;20105;-77
2023/04/11 03:19:05;;;;;;;12.38;6.05;;;1.60;99.90;;;;;;4961125;28;20034;-78
2023/04/11 03:21:30;;;;;;;14.70;6.47;;;1.70;99.90;;;;;;4979048;28;20015;-77
2023/04/11 03:23:56;;;;;;;11.55;6.03;;;1.60;99.90;;;;;;4961767;28;20099;-78
2023/04/11 03:26:25;;;;;;;11.85;5.68;;;1.60;99.90;;;;;;4978771;28;20027;-77
2023/04/11 03:28:52;;;;;;;9.05;5.28;;;1.60;99.90;;;;;;4978450;28;20552;-78
2023/04/11 03:31:18;;;;;;;13.15;6.90;;;1.60;99.90;;;;;;4979279;28;20392;-78
2023/04/11 03:33:45;;;;;;;11.55;6.78;;;1.60;99.90;;;;;;4977893;28;20027;-78
2023/04/11 03:36:10;;;;;;;12.02;5.70;;;1.50;99.90;;;;;;4961111;28;20031;-78
2023/04/11 03:38:36;;;;;;;13.07;6.82;;;1.90;99.90;;;;;;4961009;28;20412;-78
2023/04/11 03:41:02;;;;;;;13.15;6.63;;;1.50;99.90;;;;;;4961425;28;20023;-77
2023/04/11 03:43:28;;;;;;;13.48;6.95;;;1.50;99.90;;;;;;4961796;28;20483;-77
2023/04/11 03:45:54;;;;;;;12.00;5.88;;;1.60;99.90;;;;;;4978947;28;20026;-77
2023/04/11 03:48:20;;;;;;;11.30;6.38;;;1.50;99.90;;;;;;4978217;28;20033;-78
2023/04/11 03:50:45;;;;;;;10.63;7.05;;;1.50;99.90;;;;;;4979975;28;20019;-77
2023/04/11 03:53:11;;;;;;;13.82;6.35;;;1.50;99.90;;;;;;4978701;28;20027;-77
2023/04/11 03:55:37;;;;;;;12.80;6.63;;;1.60;99.90;;;;;;4960868;28;20479;-78
2023/04/11 03:58:02;;;;;;;11.82;6.07;;;1.40;99.90;;;;;;4978124;28;20109;-76
2023/04/11 04:00:28;;;;;;;7.78;5.20;;;1.70;99.90;;;;;;4978384;28;20085;-77
2023/04/11 04:02:54;;;;;;;15.35;6.45;;;1.40;99.90;;;;;;4960573;28;20027;-77
2023/04/11 04:05:19;;;;;;;14.80;5.40;;;1.50;99.90;;;;;;4960097;28;20030;-78
2023/04/11 04:07:45;;;;;;;11.05;6.57;;;1.50;99.90;;;;;;4960023;28;20488;-78
2023/04/11 04:10:11;;;;;;;10.32;5.53;;;1.50;99.90;;;;;;4960981;28;20075;-78
2023/04/11 04:12:36;;;;;;;11.43;5.35;;;1.60;99.90;;;;;;4978832;28;20165;-77
2023/04/11 04:15:02;;;;;;;13.13;6.35;;;1.70;99.90;;;;;;4977376;28;20031;-77
2023/04/11 04:17:28;;;;;;;9.98;5.50;;;1.70;99.90;;;;;;4976707;28;20034;-78
2023/04/11 04:19:53;;;;;;;10.32;5.18;;;1.70;99.90;;;;;;4960211;28;20045;-77
2023/04/11 04:22:21;;;;;;;13.02;7.18;;;1.70;99.90;;;;;;4978100;28;20451;-77
2023/04/11 04:24:46;;;;;;;14.57;6.93;;;1.80;99.90;;;;;;4977386;28;20027;-79
2023/04/11 04:27:18;;;;;;;12.30;6.80;;;2.10;99.90;;;;;;4960419;28;20054;-77
2023/04/11 04:29:47;;;;;;;14.98;7.40;;;1.90;99.90;;;;;;4960213;28;20018;-77
2023/04/11 04:32:19;;;;;;;13.23;6.40;;;2.00;99.90;;;;;;4975849;28;20031;-78
2023/04/11 04:34:48;;;;;;;13.00;6.65;;;1.80;99.90;;;;;;4959796;28;20081;-79
2023/04/11 04:37:21;;;;;;;8.73;5.72;;;1.90;99.90;;;;;;4960134;28;20023;-77
2023/04/11 04:39:52;;;;;;;12.77;6.47;;;1.80;99.90;;;;;;4960107;28;20081;-78
2023/04/11 04:42:28;;;;;;;10.38;6.20;;;1.80;99.90;;;;;;4960620;28;20527;-78
2023/04/11 04:44:55;;;;;;;;;;;1.80;99.90;;;;;;4977527;28;20050;-78
2023/04/11 04:47:21;;;;;;;;;;;1.90;99.90;;;;;;4977867;28;19906;-77
2023/04/11 04:49:47;;;;;;;;;;;1.90;99.90;;;;;;4977571;28;19906;-78
2023/04/11 04:52:13;;;;;;;13.60;5.73;;;1.90;99.90;;;;;;4960139;28;19906;-78
2023/04/11 04:54:39;;;;;;;12.20;6.75;;;2.00;99.90;;;;;;4978766;28;20381;-78
2023/04/11 04:57:05;;;;;;;14.25;7.72;;;2.00;99.90;;;;;;4961949;28;20022;-78
2023/04/11 04:59:31;;;;;;;20.13;7.32;;;2.10;99.90;;;;;;4978506;28;20037;-77
2023/04/11 05:01:57;;;;;;;14.48;8.35;;;2.00;99.90;;;;;;4979122;28;20027;-78
2023/04/11 05:04:23;;;;;;;19.05;6.68;;;2.00;99.90;;;;;;4961821;28;20031;-78
2023/04/11 05:06:49;;;;;;;21.33;7.68;;;2.00;99.90;;;;;;4961605;28;20090;-78
2023/04/11 05:09:15;;;;;;;15.27;8.13;;;2.00;99.90;;;;;;4977831;28;20110;-78
2023/04/11 05:11:41;;;;;;;18.35;9.15;;;2.10;99.90;;;;;;4961299;28;20022;-76
2023/04/11 05:14:06;;;;;;;15.55;8.57;;;2.20;99.90;;;;;;4961708;28;20029;-77
2023/04/11 05:16:32;;;;;;;14.90;7.68;;;2.90;99.90;;;;;;4961846;28;20026;-77
2023/04/11 05:18:58;;;;;;;16.67;7.75;;;2.70;99.90;;;;;;4980367;28;20039;-78
2023/04/11 05:21:23;;;;;;;14.20;6.35;;;2.60;99.90;;;;;;4963031;28;20407;-79
2023/04/11 05:23:49;;;;;;;13.75;7.20;;;2.50;99.90;;;;;;4977393;28;20034;-78
2023/04/11 05:26:15;;;;;;;12.95;7.53;;;2.50;99.90;;;;;;4961497;28;20074;-77
2023/04/11 05:28:41;;;;;;;14.57;6.85;;;2.60;99.90;;;;;;4978578;28;20064;-77
2023/04/11 05:31:07;;;;;;;13.10;7.47;;;2.60;99.90;;;;;;4978880;28;20042;-77
2023/04/11 05:33:33;;;;;;;14.30;7.05;;;2.60;99.90;;;;;;4996136;28;20503;-78
2023/04/11 05:35:59;;;;;;;11.57;7.00;;;2.60;99.90;;;;;;4978369;28;20030;-78
2023/04/11 05:38:25;;;;;;;14.15;7.70;;;2.70;99.90;;;;;;4977920;28;20026;-78
2023/04/11 05:40:51;;;;;;;12.45;7.00;;;2.90;99.90;;;;;;4980159;28;20033;-78
2023/04/11 05:43:17;;;;;;;14.48;7.88;;;2.80;99.90;;;;;;4996982;28;20419;-78
2023/04/11 05:45:46;;;;;;;14.02;7.88;;;2.90;99.90;;;;;;4978981;28;20022;-77
2023/04/11 05:48:17;;;;;;;15.95;8.90;;;2.90;99.90;;;;;;4978745;28;20018;-78
2023/04/11 05:50:43;;;;;;;15.20;8.40;;;2.90;99.90;;;;;;4979923;28;20050;-78
2023/04/11 05:53:09;;;;;;;12.13;7.43;;;3.00;99.90;;;;;;4996696;28;20027;-77
2023/04/11 05:55:35;;;;;;;14.48;8.55;;;3.10;99.90;;;;;;4996289;28;20390;-77
2023/04/11 05:58:00;;;;;;;20.48;8.73;;;3.20;99.90;;;;;;4996003;28;20472;-78
2023/04/11 06:00:29;;;;;;;16.42;8.63;;;3.20;99.90;;;;;;4996194;28;20050;-77
2023/04/11 06:02:55;;;;;;;13.18;7.70;;;3.20;99.90;;;;;;4996157;28;20026;-77
2023/04/11 06:05:21;;;;;;;15.45;7.82;;;3.20;99.90;;;;;;4978016;28;20121;-77
2023/04/11 06:07:47;;;;;;;16.33;7.63;;;3.30;99.90;;;;;;4995846;28;20030;-78
2023/04/11 06:10:12;;;;;;;16.23;8.27;;;3.30;99.90;;;;;;4978231;28;20124;-77
2023/04/11 06:12:38;;;;;;;15.90;8.80;;;3.50;99.90;;;;;;4978199;28;20050;-78
2023/04/11 06:15:05;;;;;;;18.83;8.60;;;3.60;99.90;;;;;;4996622;28;20108;-78
2023/04/11 06:17:30;;;;;;;17.27;8.85;;;3.70;99.90;;;;;;4997111;28;20026;-78
2023/04/11 06:19:56;;;;;;;16.27;9.02;;;3.90;99.90;;;;;;4973993;28;20045;-78
2023/04/11 06:22:22;;;;;;;15.82;9.07;;;3.90;99.90;;;;;;4994412;28;20033;-78
2023/04/11 06:24:47;;;;;;;15.60;8.60;;;4.10;99.90;;;;;;4997958;28;20026;-78
2023/04/11 06:27:13;;;;;;;22.95;9.93;;;4.10;99.90;;;;;;4996852;28;20474;-78
2023/04/11 06:29:40;;;;;;;18.48;8.93;;;4.20;99.90;;;;;;4997643;28;20030;-77
2023/04/11 06:32:06;;;;;;;13.40;8.13;;;4.40;99.90;;;;;;4998534;28;20018;-78
2023/04/11 06:34:33;;;;;;;19.00;9.45;;;4.40;99.90;;;;;;4980000;28;20035;-78
2023/04/11 06:36:58;;;;;;;14.88;8.90;;;4.60;99.90;;;;;;4980526;28;20030;-78
2023/04/11 06:39:24;;;;;;;12.55;7.90;;;4.50;99.90;;;;;;4982686;28;20413;-78
2023/04/11 06:41:50;;;;;;;12.70;8.35;;;4.60;99.90;;;;;;4984208;28;20439;-78
2023/04/11 06:44:16;;;;;;;13.75;7.68;;;4.60;99.90;;;;;;4984490;28;20034;-78
2023/04/11 06:46:42;;;;;;;14.15;8.55;;;4.70;99.90;;;;;;5000552;28;20037;-77
2023/04/11 06:49:08;;;;;;;16.90;8.45;;;4.90;99.90;;;;;;4983341;28;20031;-78
2023/04/11 06:51:37;;;;;;;14.77;7.93;;;5.00;99.90;;;;;;4984432;28;20030;-76
2023/04/11 06:54:03;;;;;;;13.77;7.78;;;5.10;99.90;;;;;;4984320;28;20034;-78
2023/04/11 06:56:29;;;;;;;12.98;7.95;;;5.10;99.90;;;;;;5000588;28;20514;-78
2023/04/11 06:58:54;;;;;;;12.93;8.07;;;5.10;99.90;;;;;;4982441;28;20035;-78
2023/04/11 07:01:24;;;;;;;14.77;8.05;;;5.20;99.90;;;;;;4981770;28;20569;-77
2023/04/11 07:03:53;;;;;;;15.02;8.02;;;5.40;99.90;;;;;;4981486;28;20041;-77
2023/04/11 07:06:19;;;;;;;15.65;8.07;;;5.60;99.90;;;;;;4980345;28;20027;-76
2023/04/11 07:08:45;;;;;;;14.30;7.00;;;5.60;99.90;;;;;;4996913;28;20036;-75
2023/04/11 07:11:11;;;;;;;14.02;7.70;;;5.70;99.90;;;;;;4997698;28;20031;-77
2023/04/11 07:13:37;;;;;;;14.27;7.35;;;5.90;99.90;;;;;;4979707;28;20117;-76
2023/04/11 07:16:02;;;;;;;14.63;8.10;;;5.90;99.90;;;;;;4979019;28;20027;-77
2023/04/11 07:18:29;;;;;;;22.77;9.48;;;6.00;99.90;;;;;;4980113;28;20034;-78
2023/04/11 07:20:55;;;;;;;15.40;8.63;;;6.30;99.90;;;;;;4981509;28;20030;-77
2023/04/11 07:23:21;;;;;;;16.00;9.25;;;6.40;99.90;;;;;;4998446;28;20423;-77
2023/04/11 07:25:47;;;;;;;12.18;8.60;;;6.60;99.90;;;;;;4979609;28;20478;-77
2023/04/11 07:28:13;;;;;;;12.98;8.30;;;6.60;99.90;;;;;;4998726;28;20065;-77
2023/04/11 07:30:40;;;;;;;10.98;7.78;;;6.90;99.90;;;;;;4999102;28;20022;-78
2023/04/11 07:33:05;;;;;;;13.48;8.68;;;7.00;99.90;;;;;;4981174;28;20026;-77
2023/04/11 07:35:33;;;;;;;15.25;8.80;;;7.20;99.90;;;;;;4998479;28;20098;-77
2023/04/11 07:37:59;;;;;;;17.92;8.77;;;7.40;99.90;;;;;;4980726;28;20132;-77
2023/04/11 07:40:26;;;;;;;12.15;8.43;;;7.70;99.90;;;;;;4981922;28;20053;-77
2023/04/11 07:42:51;;;;;;;12.65;7.82;;;7.90;99.90;;;;;;4980008;28;20022;-77
2023/04/11 07:45:17;;;;;;;12.02;8.07;;;7.70;99.90;;;;;;4979834;28;20410;-77
2023/04/11 07:47:43;;;;;;;12.63;8.23;;;7.70;99.90;;;;;;4981612;28;20022;-77
2023/04/11 07:50:09;;;;;;;13.50;8.40;;;7.90;99.90;;;;;;4979695;28;20385;-78
2023/04/11 07:52:35;;;;;;;13.90;6.93;;;8.00;99.90;;;;;;4980481;28;20640;-78
2023/04/11 07:55:01;;;;;;;11.32;7.35;;;8.30;99.90;;;;;;5011398;28;20125;-78
2023/04/11 07:57:28;;;;;;;10.15;6.13;;;8.40;99.90;;;;;;4997267;28;20030;-76
2023/04/11 07:59:55;;;;;;;12.65;7.45;;;8.60;99.90;;;;;;4980796;28;20026;-78
2023/04/11 08:02:22;;;;;;;9.50;6.40;;;8.90;99.90;;;;;;4998903;28;20027;-77
2023/04/11 08:04:47;;;;;;;7.90;5.57;;;8.90;99.90;;;;;;4999150;28;20116;-77
2023/04/11 08:07:14;;;;;;;10.93;6.35;;;9.10;99.90;;;;;;4998155;28;20499;-75
2023/04/11 08:09:41;;;;;;;11.02;6.70;;;9.10;99.90;;;;;;4999643;28;20098;-78
2023/04/11 08:12:07;;;;;;;13.05;9.38;;;9.20;99.90;;;;;;4998119;28;20018;-78
2023/04/11 08:14:33;;;;;;;9.98;6.50;;;9.40;99.90;;;;;;4997057;28;20022;-77
2023/04/11 08:16:59;;;;;;;10.10;6.88;;;9.50;99.90;;;;;;4980221;28;20397;-78
2023/04/11 08:19:25;;;;;;;8.95;6.22;;;9.80;99.90;;;;;;4980976;28;20521;-78
2023/04/11 08:21:51;;;;;;;10.70;6.40;;;9.70;99.90;;;;;;4998722;28;20014;-78
2023/04/11 08:24:17;;;;;;;12.05;6.43;;;9.70;99.90;;;;;;5000024;28;20033;-78
2023/04/11 08:26:43;;;;;;;9.88;6.18;;;9.70;99.90;;;;;;4979760;28;20019;-77
2023/04/11 08:29:11;;;;;;;8.60;5.80;;;9.90;99.90;;;;;;4980960;28;20018;-76
2023/04/11 08:31:45;;;;;;;14.63;6.68;;;9.80;99.90;;;;;;4998252;28;20026;-78
2023/04/11 08:34:11;;;;;;;9.35;6.13;;;9.90;99.90;;;;;;4999330;28;20082;-77
2023/04/11 08:36:37;;;;;;;10.07;7.22;;;10.00;99.90;;;;;;4998052;28;20065;-77
2023/04/11 08:39:03;;;;;;;11.95;6.70;;;10.30;99.90;;;;;;4997247;28;20026;-77
2023/04/11 08:41:29;;;;;;;9.38;5.70;;;10.30;99.90;;;;;;4997192;28;20081;-77
2023/04/11 08:43:56;;;;;;;19.38;6.18;;;10.30;99.90;;;;;;4998619;28;20031;-77
2023/04/11 08:46:22;;;;;;;11.70;5.80;;;10.30;99.90;;;;;;4980619;28;20072;-76
2023/04/11 08:48:48;;;;;;;8.77;6.07;;;10.30;99.90;;;;;;4996631;28;20026;-77
2023/04/11 08:51:24;;;;;;;10.70;6.30;;;10.50;99.90;;;;;;4997134;28;20106;-77
2023/04/11 08:53:52;;;;;;;9.95;6.63;;;10.70;99.90;;;;;;4979044;28;20030;-77
2023/04/11 08:56:18;;;;;;;10.45;6.32;;;10.90;99.90;;;;;;4979400;28;20026;-77
2023/04/11 08:58:44;;;;;;;12.52;5.85;;;11.20;99.90;;;;;;4978437;28;20037;-77
2023/04/11 09:01:30;;;;;;;12.10;6.97;;;11.30;99.90;;;;;;4996199;28;20023;-77
2023/04/11 09:04:01;;;;;;;14.80;7.35;;;11.30;99.90;;;;;;4978409;28;20391;-76
2023/04/11 09:06:31;;;;;;;7.85;5.10;;;11.50;99.90;;;;;;4996659;28;20026;-78
2023/04/11 09:09:05;;;;;;;9.02;5.90;;;11.60;99.80;;;;;;4980832;28;20018;-79
2023/04/11 09:11:50;;;;;;;10.80;6.47;;;11.60;98.30;;;;;;4999216;28;20018;-78
2023/04/11 09:14:16;;;;;;;14.48;5.82;;;11.80;98.80;;;;;;4997248;28;20022;-78
2023/04/11 09:16:54;;;;;;;10.32;5.95;;;12.10;98.30;;;;;;4981594;28;20030;-78
2023/04/11 09:19:27;;;;;;;9.00;5.50;;;12.00;97.10;;;;;;4980451;28;20096;-78
2023/04/11 09:21:59;;;;;;;12.30;6.80;;;12.00;97.70;;;;;;4999634;28;20023;-76
2023/04/11 09:24:30;;;;;;;12.02;5.55;;;12.10;97.70;;;;;;4983524;28;20030;-76
2023/04/11 09:27:11;;;;;;;7.40;4.53;;;12.00;96.50;;;;;;4997433;28;20022;-78
2023/04/11 09:29:46;;;;;;;7.45;4.65;;;12.00;96.80;;;;;;4981493;28;20391;-76
2023/04/11 09:32:29;;;;;;;9.15;5.88;;;12.10;97.10;;;;;;4975536;28;20045;-76
2023/04/11 09:35:15;;;;;;;10.77;5.85;;;12.10;97.60;;;;;;4993049;28;20026;-77
2023/04/11 09:37:45;;;;;;;6.03;4.60;;;12.10;97.40;;;;;;4992934;28;20407;-75
2023/04/11 09:40:13;;;;;;;8.20;4.90;;;12.10;97.10;;;;;;4992723;28;20024;-76
2023/04/11 09:42:40;;;;;;;6.35;4.70;;;12.10;97.20;;;;;;4992669;28;20398;-75
2023/04/11 09:45:16;;;;;;;9.35;6.18;;;12.00;98.10;;;;;;4975516;28;20049;-76
2023/04/11 09:47:42;;;;;;;11.77;6.68;;;12.00;98.20;;;;;;4974971;28;20502;-76
2023/04/11 09:50:08;;;;;;;8.00;4.82;;;12.10;98.30;;;;;;4993185;28;20030;-76
2023/04/11 09:52:35;;;;;;;6.63;5.03;;;12.10;97.60;;;;;;4975974;28;20495;-76
2023/04/11 09:55:03;;;;;;;6.15;4.00;;;12.20;97.40;;;;;;4994642;28;20026;-77
2023/04/11 09:57:32;;;;;;;4.85;3.70;;;12.30;97.00;;;;;;4977231;28;20061;-77
2023/04/11 10:00:05;;;;;;;6.68;4.53;;;12.30;96.80;;;;;;4996999;28;20030;-76
2023/04/11 10:02:31;;;;;;;14.68;7.47;;;12.30;96.10;;;;;;4979076;28;20030;-77
2023/04/11 10:04:59;;;;;;;12.25;6.65;;;12.40;96.10;;;;;;4995592;28;20437;-77
2023/04/11 10:07:28;;;;;;;8.10;4.82;;;12.60;95.90;;;;;;4980003;28;20054;-78
2023/04/11 10:09:54;;;;;;;7.18;5.22;;;12.60;95.70;;;;;;4997952;28;20018;-78
2023/04/11 10:12:34;;;;;;;5.43;4.03;;;12.70;95.30;;;;;;4982067;28;20042;-77
2023/04/11 10:15:08;;;;;;;5.80;3.92;;;12.80;94.20;;;;;;5001322;28;20077;-78
2023/04/11 10:17:35;;;;;;;5.00;2.90;;;12.80;93.00;;;;;;4981773;28;20057;-77
2023/04/11 10:20:03;;;;;;;5.03;3.45;;;12.80;91.70;;;;;;4981503;28;20450;-77
2023/04/11 10:22:45;;;;;;;4.47;3.00;;;12.70;91.10;;;;;;4998521;28;20452;-78
2023/04/11 10:25:15;;;;;;;3.85;2.53;;;12.70;92.30;;;;;;4980309;28;20145;-78
2023/04/11 10:27:49;;;;;;;4.63;2.90;;;12.80;93.50;;;;;;4979419;28;20022;-77
2023/04/11 10:30:15;;;;;;;4.15;2.92;;;12.90;93.20;;;;;;4999398;28;20073;-77
2023/04/11 10:33:11;;;;;;;4.85;3.45;;;12.90;92.60;;;;;;4999683;28;20030;-78
2023/04/11 10:35:58;;;;;;;3.95;3.30;;;13.00;93.60;;;;;;4982183;28;20046;-77
2023/04/11 10:38:39;;;;;;;4.63;3.60;;;13.10;91.90;;;;;;4997753;28;20383;-80
2023/04/11 10:41:32;;;;;;;6.30;3.53;;;13.00;91.90;;;;;;4982298;28;20027;-77
2023/04/11 10:44:17;;;;;;;6.05;3.92;;;13.00;93.40;;;;;;4982388;28;20026;-78
2023/04/11 10:46:52;;;;;;;5.97;3.30;;;13.00;93.40;;;;;;4981881;28;20101;-78
2023/04/11 10:49:38;;;;;;;4.40;2.92;;;13.00;93.00;;;;;;4981211;28;20046;-77
2023/04/11 10:52:20;;;;;;;4.93;3.30;;;13.10;92.30;;;;;;4981107;28;20034;-77
2023/04/11 10:54:47;;;;;;;6.85;3.20;;;13.30;92.30;;;;;;4982135;28;20105;-78
2023/04/11 10:57:13;;;;;;;5.95;3.30;;;13.50;92.30;;;;;;4981289;28;20117;-78
2023/04/11 10:59:48;;;;;;;4.38;2.72;;;13.40;92.60;;;;;;4998832;28;20031;-76
2023/04/11 11:02:15;;;;;;;3.08;2.78;;;13.50;92.40;;;;;;4981748;28;20026;-77
2023/04/11 11:04:41;;;;;;;5.13;3.40;;;13.70;92.00;;;;;;4998584;28;20023;-80
2023/04/11 11:07:12;;;;;;;4.07;3.00;;;13.80;92.00;;;;;;4998872;28;20426;-79
2023/04/11 11:09:37;;;;;;;3.67;2.67;;;13.70;91.80;;;;;;4981053;28;20025;-78
2023/04/11 11:12:07;;;;;;;4.03;2.20;;;13.70;91.50;;;;;;4980822;28;20223;-78
2023/04/11 11:14:32;;;;;;;6.07;2.80;;;13.70;91.00;;;;;;4980599;28;20513;-77
2023/04/11 11:16:58;;;;;;;4.00;2.75;;;13.80;91.70;;;;;;4997468;28;20030;-77
2023/04/11 11:19:24;;;;;;;3.85;2.90;;;13.90;91.20;;;;;;4980167;28;20038;-78
2023/04/11 11:21:53;;;;;;;2.63;2.42;;;13.90;92.00;;;;;;4981020;28;20022;-78
2023/04/11 11:24:25;;;;;;;5.43;3.03;;;14.10;91.70;;;;;;4998436;28;20482;-77
2023/04/11 11:26:53;;;;;;;4.80;2.90;;;14.30;91.20;;;;;;4983244;28;20037;-78
2023/04/11 11:29:36;;;;;;;4.43;2.95;;;14.50;90.40;;;;;;5000812;28;20233;-76
2023/04/11 11:32:03;;;;;;;3.65;2.60;;;14.60;90.00;;;;;;5003215;28;20025;-76
2023/04/11 11:34:31;;;;;;;3.55;2.85;;;14.50;88.80;;;;;;5001678;28;20096;-77
2023/04/11 11:37:00;;;;;;;3.42;2.63;;;14.40;88.40;;;;;;4982992;28;20590;-77
2023/04/11 11:39:27;;;;;;;5.47;3.10;;;14.20;86.20;;;;;;4984238;28;20049;-78
2023/04/11 11:41:54;;;;;;;3.88;2.85;;;14.60;86.40;;;;;;4984244;28;20549;-78
2023/04/11 11:44:28;;;;;;;3.47;2.55;;;14.70;84.30;;;;;;5001597;28;20026;-78
2023/04/11 11:47:04;;;;;;;3.17;2.05;;;15.00;82.30;;;;;;4997637;28;20041;-77
2023/04/11 11:49:45;;;;;;;2.25;2.00;;;14.80;82.60;;;;;;4979493;28;20026;-77
2023/04/11 11:52:12;;;;;;;5.65;2.70;;;14.80;82.00;;;;;;4997159;28;20034;-77
2023/04/11 11:54:45;;;;;;;4.30;2.97;;;14.80;83.10;;;;;;4997162;28;20018;-77
2023/04/11 11:57:18;;;;;;;5.35;3.53;;;14.90;84.00;;;;;;4979687;28;20019;-77
2023/04/11 11:59:45;;;;;;;4.65;3.40;;;15.00;84.00;;;;;;5000510;28;20025;-78
2023/04/11 12:02:11;;;;;;;23.27;14.05;;;15.10;81.10;;;;;;5001007;28;20046;-77
2023/04/11 12:04:36;;;;;;;16.42;8.45;;;15.20;81.10;;;;;;4983267;28;20033;-76
2023/04/11 12:07:09;;;;;;;4.82;3.65;;;15.20;80.50;;;;;;5001677;28;20077;-78
2023/04/11 12:09:35;;;;;;;6.30;4.38;;;15.50;79.90;;;;;;5000904;28;20030;-77
2023/04/11 12:12:01;;;;;;;4.15;2.72;;;15.80;79.10;;;;;;4982169;28;20026;-76
2023/04/11 12:14:28;;;;;;;9.48;5.93;;;15.80;75.60;;;;;;5000290;28;20037;-78
2023/04/11 12:16:54;;;;;;;8.00;4.75;;;15.70;76.90;;;;;;5000053;28;20022;-77
2023/04/11 12:19:19;;;;;;;4.30;3.10;;;15.60;76.10;;;;;;4999497;28;20418;-78
2023/04/11 12:21:45;;;;;;;5.30;3.50;;;15.60;74.90;;;;;;4982642;28;20107;-77
2023/04/11 12:24:11;;;;;;;4.47;2.72;;;15.60;76.90;;;;;;4982168;28;20030;-76
2023/04/11 12:26:36;;;;;;;5.15;3.08;;;15.50;75.50;;;;;;4999511;28;20019;-76
2023/04/11 12:29:06;;;;;;;9.10;4.60;;;15.50;76.70;;;;;;4981801;28;20033;-76
2023/04/11 12:31:31;;;;;;;8.02;5.35;;;15.70;75.70;;;;;;4982385;28;20394;-76
2023/04/11 12:33:57;;;;;;;4.43;3.30;;;15.80;76.00;;;;;;4999661;28;20045;-76
2023/04/11 12:36:22;;;;;;;2.78;2.47;;;16.00;76.20;;;;;;4997165;28;20081;-77
2023/04/11 12:38:48;;;;;;;4.45;2.60;;;16.10;73.80;;;;;;4981459;28;20054;-76
2023/04/11 12:41:14;;;;;;;4.38;3.47;;;16.40;74.00;;;;;;5000256;28;20022;-75
2023/04/11 12:43:39;;;;;;;4.03;2.65;;;16.40;71.40;;;;;;4981642;28;20033;-76
2023/04/11 12:46:06;;;;;;;4.00;2.72;;;16.50;71.20;;;;;;4999381;28;20026;-75
2023/04/11 12:48:32;;;;;;;2.42;2.17;;;16.40;70.50;;;;;;4981801;28;20411;-77
2023/04/11 12:50:57;;;;;;;2.85;2.50;;;16.50;71.90;;;;;;4982521;28;20092;-77